createdAt,value
2022-08-22T00:02:27.434Z,2.40
2022-08-22T00:02:58.169Z,1.90
2022-08-22T00:05:03.656Z,2.40
2022-08-22T00:07:41.976Z,2.40
2022-08-22T00:10:24.989Z,2.40
2022-08-22T00:13:04.339Z,2.30
2022-08-22T00:15:42.860Z,2.60
2022-08-22T00:18:19.445Z,2.42
2022-08-22T00:20:50.496Z,2.40
2022-08-22T00:23:24.132Z,2.40
2022-08-22T00:25:57.295Z,2.40
2022-08-22T00:28:32.330Z,2.03
2022-08-22T00:31:08.444Z,2.22
2022-08-22T00:33:42.546Z,2.78
2022-08-22T00:36:25.366Z,2.00
2022-08-22T00:39:01.683Z,2.13
2022-08-22T00:41:53.718Z,2.28
2022-08-22T00:44:41.857Z,2.65
2022-08-22T00:47:25.750Z,2.42
2022-08-22T00:50:08.709Z,2.30
2022-08-22T00:53:00.728Z,2.20
2022-08-22T00:55:42.205Z,2.63
2022-08-22T00:58:33.472Z,2.25
2022-08-22T01:01:06.823Z,2.42
2022-08-22T01:04:08.113Z,2.28
2022-08-22T01:06:43.602Z,2.90
2022-08-22T01:09:23.804Z,2.92
2022-08-22T01:12:11.865Z,2.50
2022-08-22T01:14:49.033Z,2.70
2022-08-22T01:18:06.809Z,2.53
2022-08-22T01:21:13.523Z,2.60
2022-08-22T01:24:09.229Z,2.10
2022-08-22T01:27:04.822Z,2.55
2022-08-22T01:30:11.240Z,2.97
2022-08-22T01:33:32.594Z,2.40
2022-08-22T01:36:31.025Z,2.70
2022-08-22T01:39:37.265Z,2.60
2022-08-22T01:42:28.440Z,2.50
2022-08-22T01:45:19.590Z,2.85
2022-08-22T01:47:54.524Z,2.55
2022-08-22T01:50:26.643Z,2.70
2022-08-22T01:53:04.782Z,2.70
2022-08-22T01:55:36.188Z,2.72
2022-08-22T01:58:16.726Z,2.72
2022-08-22T02:01:17.596Z,2.90
2022-08-22T02:04:00.326Z,2.58
2022-08-22T02:06:39.519Z,2.67
2022-08-22T02:09:13.834Z,3.05
2022-08-22T02:11:52.047Z,2.58
2022-08-22T02:14:30.607Z,2.53
2022-08-22T02:17:12.155Z,2.58
2022-08-22T02:19:50.804Z,2.97
2022-08-22T02:22:30.521Z,2.65
2022-08-22T02:25:09.804Z,2.42
2022-08-22T02:27:48.242Z,2.40
2022-08-22T02:30:20.092Z,2.60
2022-08-22T02:32:59.308Z,2.10
2022-08-22T02:35:32.462Z,2.50
2022-08-22T02:38:22.452Z,2.35
2022-08-22T02:41:02.726Z,2.92
2022-08-22T02:43:40.886Z,2.55
2022-08-22T02:46:19.976Z,2.25
2022-08-22T02:48:57.276Z,2.75
2022-08-22T02:51:33.145Z,2.45
2022-08-22T02:54:14.493Z,2.10
2022-08-22T02:56:53.497Z,2.30
2022-08-22T02:59:33.614Z,2.50
2022-08-22T03:02:30.702Z,2.00
2022-08-22T03:05:01.857Z,2.33
2022-08-22T03:07:40.328Z,2.30
2022-08-22T03:10:18.149Z,2.42
2022-08-22T03:12:58.418Z,2.20
2022-08-22T03:15:34.072Z,2.30
2022-08-22T03:18:06.482Z,2.58
2022-08-22T03:20:43.587Z,2.45
2022-08-22T03:23:23.614Z,2.63
2022-08-22T03:25:57.451Z,2.20
2022-08-22T03:28:32.462Z,2.25
2022-08-22T03:31:08.864Z,1.95
2022-08-22T03:33:36.720Z,2.30
2022-08-22T03:36:11.194Z,2.35
2022-08-22T03:38:52.913Z,2.17
2022-08-22T03:41:46.863Z,2.92
2022-08-22T03:44:39.847Z,2.92
2022-08-22T03:47:31.739Z,2.45
2022-08-22T03:50:20.239Z,2.88
2022-08-22T03:53:23.152Z,2.45
2022-08-22T03:56:20.595Z,2.45
2022-08-22T03:59:24.257Z,3.03
2022-08-22T04:02:43.501Z,2.95
2022-08-22T04:05:45.578Z,2.60
2022-08-22T04:09:00.072Z,2.80
2022-08-22T04:11:50.732Z,2.22
2022-08-22T04:14:37.287Z,2.65
2022-08-22T04:17:41.761Z,2.85
2022-08-22T04:20:27.931Z,2.42
2022-08-22T04:23:36.719Z,2.58
2022-08-22T04:26:16.440Z,2.65
2022-08-22T04:28:49.254Z,2.60
2022-08-22T04:31:23.431Z,2.60
2022-08-22T04:33:58.412Z,2.45
2022-08-22T04:36:30.732Z,3.22
2022-08-22T04:39:06.551Z,2.38
2022-08-22T04:41:46.572Z,2.75
2022-08-22T04:44:19.824Z,2.45
2022-08-22T04:46:57.235Z,2.80
2022-08-22T04:49:33.923Z,3.10
2022-08-22T04:52:16.624Z,2.40
2022-08-22T04:54:58.465Z,2.35
2022-08-22T04:57:36.855Z,2.45
2022-08-22T05:00:09.010Z,2.80
2022-08-22T05:02:42.331Z,2.67
2022-08-22T05:05:20.958Z,2.97
2022-08-22T05:07:51.641Z,2.85
2022-08-22T05:10:25.963Z,2.75
2022-08-22T05:13:00.442Z,3.38
2022-08-22T05:15:32.455Z,2.92
2022-08-22T05:18:07.477Z,3.30
2022-08-22T05:20:37.306Z,3.17
2022-08-22T05:23:17.427Z,2.90
2022-08-22T05:25:48.055Z,3.03
2022-08-22T05:28:31.315Z,3.53
2022-08-22T05:30:59.785Z,3.75
2022-08-22T05:33:32.462Z,3.20
2022-08-22T05:36:05.562Z,3.63
2022-08-22T05:38:38.403Z,4.38
2022-08-22T05:41:10.135Z,4.07
2022-08-22T05:43:40.127Z,4.18
2022-08-22T05:46:13.609Z,4.15
2022-08-22T05:48:47.987Z,3.85
2022-08-22T05:51:21.583Z,3.42
2022-08-22T05:53:57.143Z,4.20
2022-08-22T05:56:36.224Z,4.22
2022-08-22T05:59:13.047Z,3.92
2022-08-22T06:01:51.940Z,4.25
2022-08-22T06:04:29.011Z,4.18
2022-08-22T06:07:00.585Z,3.70
2022-08-22T06:09:34.868Z,3.70
2022-08-22T06:12:18.161Z,3.92
2022-08-22T06:15:00.999Z,3.97
2022-08-22T06:17:35.908Z,4.10
2022-08-22T06:20:09.137Z,4.25
2022-08-22T06:22:42.175Z,4.75
2022-08-22T06:25:14.732Z,6.18
2022-08-22T06:27:44.430Z,7.03
2022-08-22T06:30:16.292Z,6.57
2022-08-22T06:32:59.238Z,8.85
2022-08-22T06:35:54.694Z,8.13
2022-08-22T06:38:28.434Z,9.05
2022-08-22T06:41:00.472Z,7.95
2022-08-22T06:43:38.549Z,7.55
2022-08-22T06:46:07.260Z,8.02
2022-08-22T06:48:37.191Z,6.70
2022-08-22T06:51:08.647Z,6.55
2022-08-22T06:53:47.632Z,6.40
2022-08-22T06:56:22.261Z,6.35
2022-08-22T06:58:53.574Z,6.30
2022-08-22T07:01:24.089Z,6.35
2022-08-22T07:03:54.914Z,6.93
2022-08-22T07:06:30.866Z,6.70
2022-08-22T07:08:59.341Z,6.05
2022-08-22T07:11:38.563Z,7.07
2022-08-22T07:14:11.531Z,6.35
2022-08-22T07:16:43.702Z,6.28
2022-08-22T07:19:23.691Z,5.50
2022-08-22T07:21:53.422Z,4.20
2022-08-22T07:24:25.774Z,4.50
2022-08-22T07:27:08.965Z,4.72
2022-08-22T07:29:47.756Z,4.65
2022-08-22T07:32:20.375Z,4.53
2022-08-22T07:35:01.887Z,4.18
2022-08-22T07:37:48.187Z,4.38
2022-08-22T07:40:24.729Z,4.68
2022-08-22T07:42:59.707Z,4.95
2022-08-22T07:45:35.915Z,4.05
2022-08-22T07:48:25.383Z,3.90
2022-08-22T07:51:02.044Z,3.95
2022-08-22T07:53:41.253Z,3.80
2022-08-22T07:56:14.261Z,3.50
2022-08-22T07:58:45.434Z,3.90
2022-08-22T08:01:21.833Z,4.28
2022-08-22T08:03:54.567Z,3.95
2022-08-22T08:06:24.917Z,3.75
2022-08-22T08:08:55.810Z,3.67
2022-08-22T08:11:26.962Z,3.38
2022-08-22T08:14:00.587Z,3.25
2022-08-22T08:16:32.238Z,2.78
2022-08-22T08:19:01.966Z,2.50
2022-08-22T08:21:36.140Z,2.70
2022-08-22T08:24:09.098Z,2.88
2022-08-22T08:27:02.127Z,2.60
2022-08-22T08:29:30.079Z,2.40
2022-08-22T08:31:59.300Z,2.15
2022-08-22T08:34:29.029Z,2.20
2022-08-22T08:37:02.178Z,2.55
2022-08-22T08:39:36.210Z,2.03
2022-08-22T08:42:54.022Z,2.25
2022-08-22T08:45:37.430Z,2.00
2022-08-22T08:48:18.227Z,2.42
2022-08-22T08:51:02.121Z,2.10
2022-08-22T08:53:46.553Z,1.88
2022-08-22T08:56:25.657Z,1.80
2022-08-22T08:59:10.075Z,1.77
2022-08-22T09:02:20.366Z,2.00
2022-08-22T09:05:19.855Z,1.77
2022-08-22T09:08:05.496Z,1.75
2022-08-22T09:11:04.778Z,1.60
2022-08-22T09:13:56.563Z,1.70
2022-08-22T09:16:59.056Z,1.67
2022-08-22T09:19:57.549Z,1.50
2022-08-22T09:23:04.307Z,1.75
2022-08-22T09:25:43.919Z,1.85
2022-08-22T09:28:17.427Z,1.90
2022-08-22T09:31:22.732Z,1.60
2022-08-22T09:34:05.205Z,1.95
2022-08-22T09:36:43.587Z,1.90
2022-08-22T09:39:17.927Z,1.65
2022-08-22T09:41:54.149Z,2.00
2022-08-22T09:44:34.314Z,1.95
2022-08-22T09:47:24.483Z,1.90
2022-08-22T09:50:04.870Z,1.67
2022-08-22T09:52:57.893Z,1.60
2022-08-22T09:55:45.184Z,1.80
2022-08-22T09:58:25.954Z,1.75
2022-08-22T10:01:00.674Z,1.63
2022-08-22T10:03:53.592Z,1.80
2022-08-22T10:06:25.978Z,1.88
2022-08-22T10:09:03.351Z,1.85
2022-08-22T10:11:38.920Z,1.70
2022-08-22T10:14:22.183Z,1.95
2022-08-22T10:17:03.513Z,1.80
2022-08-22T10:19:39.064Z,1.70
2022-08-22T10:22:20.317Z,1.95
2022-08-22T10:24:59.939Z,2.20
2022-08-22T10:27:43.691Z,1.92
2022-08-22T10:30:18.385Z,1.60
2022-08-22T10:32:53.486Z,1.65
2022-08-22T10:35:29.340Z,2.08
2022-08-22T10:38:07.112Z,1.92
2022-08-22T10:40:43.123Z,2.25
2022-08-22T10:43:15.639Z,1.85
2022-08-22T10:45:47.730Z,1.95
2022-08-22T10:48:35.615Z,1.90
2022-08-22T10:51:19.739Z,2.47
2022-08-22T10:54:02.350Z,2.05
2022-08-22T10:56:35.463Z,1.67
2022-08-22T10:59:16.259Z,2.22
2022-08-22T11:01:51.498Z,1.85
2022-08-22T11:04:35.513Z,1.70
2022-08-22T11:07:18.671Z,2.10
2022-08-22T11:09:57.651Z,2.30
2022-08-22T11:12:34.650Z,2.28
2022-08-22T11:15:12.955Z,1.90
2022-08-22T11:18:16.680Z,2.25
2022-08-22T11:20:56.535Z,2.03
2022-08-22T11:23:38.838Z,2.15
2022-08-22T11:26:30.125Z,1.92
2022-08-22T11:29:24.146Z,1.80
2022-08-22T11:32:06.125Z,2.17
2022-08-22T11:34:50.161Z,1.92
2022-08-22T11:37:42.171Z,2.05
2022-08-22T11:40:29.046Z,2.30
2022-08-22T11:43:03.746Z,2.10
2022-08-22T11:45:40.373Z,1.83
2022-08-22T11:48:19.881Z,2.10
2022-08-22T11:50:52.154Z,2.40
2022-08-22T11:53:32.871Z,2.28
2022-08-22T11:56:16.205Z,2.00
2022-08-22T11:58:53.384Z,2.35
2022-08-22T12:01:34.378Z,2.33
2022-08-22T12:04:10.743Z,2.03
2022-08-22T12:06:56.123Z,2.20
2022-08-22T12:09:40.392Z,2.50
2022-08-22T12:12:34.909Z,2.13
2022-08-22T12:15:12.614Z,2.10
2022-08-22T12:18:20.019Z,1.90
2022-08-22T12:21:17.402Z,2.10
2022-08-22T12:23:57.152Z,2.60
2022-08-22T12:26:34.415Z,2.30
2022-08-22T12:29:19.126Z,1.90
2022-08-22T12:32:28.348Z,2.17
2022-08-22T12:35:14.609Z,2.55
2022-08-22T12:37:52.760Z,2.50
2022-08-22T12:40:34.778Z,3.03
2022-08-22T12:43:29.349Z,2.83
2022-08-22T12:46:16.287Z,2.67
2022-08-22T12:49:00.340Z,3.03
2022-08-22T12:51:44.759Z,3.22
2022-08-22T12:54:45.893Z,2.45
2022-08-22T12:57:25.082Z,2.65
2022-08-22T12:59:58.133Z,2.63
2022-08-22T13:02:32.022Z,2.70
2022-08-22T13:05:09.137Z,2.92
2022-08-22T13:07:38.567Z,3.00
2022-08-22T13:10:33.100Z,2.75
2022-08-22T13:13:11.804Z,2.95
2022-08-22T13:15:53.675Z,3.15
2022-08-22T13:18:31.258Z,3.13
2022-08-22T13:21:03.642Z,2.50
2022-08-22T13:23:39.777Z,3.08
2022-08-22T13:26:16.328Z,3.20
2022-08-22T13:31:59.171Z,2.97
2022-08-22T13:34:40.080Z,2.97
2022-08-22T13:37:15.799Z,3.55
2022-08-22T13:39:46.823Z,3.22
2022-08-22T13:42:30.603Z,2.70
2022-08-22T13:45:04.868Z,2.38
2022-08-22T13:47:39.885Z,2.45
2022-08-22T13:50:19.074Z,2.33
2022-08-22T13:52:55.178Z,2.63
2022-08-22T13:55:34.037Z,2.88
2022-08-22T13:58:11.116Z,2.67
2022-08-22T14:01:28.370Z,2.78
2022-08-22T14:04:00.849Z,2.53
2022-08-22T14:06:41.360Z,2.63
2022-08-22T14:09:31.864Z,2.50
2022-08-22T14:12:12.185Z,2.85
2022-08-22T14:14:43.170Z,2.50
2022-08-22T14:17:19.503Z,2.30
2022-08-22T14:19:59.586Z,2.50
2022-08-22T14:22:35.097Z,2.33
2022-08-22T14:25:07.219Z,2.30
2022-08-22T14:27:39.873Z,2.20
2022-08-22T14:30:16.280Z,2.63
2022-08-22T14:32:50.562Z,2.30
2022-08-22T14:35:34.958Z,2.38
2022-08-22T14:38:27.274Z,2.13
2022-08-22T14:41:03.406Z,2.00
2022-08-22T14:43:49.271Z,2.20
2022-08-22T14:46:26.435Z,2.50
2022-08-22T14:49:24.785Z,2.05
2022-08-22T14:52:00.507Z,2.13
2022-08-22T14:54:31.078Z,2.40
2022-08-22T14:57:00.910Z,2.10
2022-08-22T14:59:41.208Z,2.00
2022-08-22T15:02:17.112Z,2.17
2022-08-22T15:04:52.616Z,2.25
2022-08-22T15:07:36.034Z,1.70
2022-08-22T15:10:20.768Z,2.13
2022-08-22T15:12:53.752Z,1.92
2022-08-22T15:15:33.548Z,2.08
2022-08-22T15:18:20.122Z,1.88
2022-08-22T15:20:52.086Z,2.20
2022-08-22T15:23:22.956Z,2.00
2022-08-22T15:26:01.689Z,2.10
2022-08-22T15:28:49.719Z,2.17
2022-08-22T15:31:21.595Z,2.30
2022-08-22T15:33:51.235Z,1.95
2022-08-22T15:36:22.549Z,2.15
2022-08-22T15:38:53.858Z,2.05
2022-08-22T15:41:46.125Z,2.10
2022-08-22T15:44:32.463Z,2.30
2022-08-22T15:47:10.803Z,2.17
2022-08-22T15:49:50.409Z,1.92
2022-08-22T15:52:25.837Z,2.03
2022-08-22T15:55:21.191Z,1.88
2022-08-22T15:58:00.036Z,2.40
2022-08-22T16:00:34.299Z,1.92
2022-08-22T16:03:06.978Z,2.00
2022-08-22T16:05:50.771Z,2.53
2022-08-22T16:08:26.638Z,2.00
2022-08-22T16:11:17.947Z,1.80
2022-08-22T16:13:48.148Z,2.35
2022-08-22T16:16:57.818Z,1.90
2022-08-22T16:19:27.239Z,1.90
2022-08-22T16:22:12.631Z,2.40
2022-08-22T16:25:04.124Z,2.00
2022-08-22T16:27:32.821Z,2.00
2022-08-22T16:30:09.322Z,1.98
2022-08-22T16:35:13.588Z,2.28
2022-08-22T16:37:48.473Z,2.20
2022-08-22T16:40:27.076Z,2.65
2022-08-22T16:43:16.282Z,2.30
2022-08-22T16:45:48.532Z,2.28
2022-08-22T16:48:36.387Z,2.88
2022-08-22T16:51:18.428Z,2.47
2022-08-22T16:54:34.373Z,6.70
2022-08-22T16:57:15.130Z,4.45
2022-08-22T17:00:02.139Z,2.95
2022-08-22T17:02:55.687Z,2.50
2022-08-22T17:05:40.547Z,2.40
2022-08-22T17:08:30.885Z,2.38
2022-08-22T17:11:12.240Z,3.00
2022-08-22T17:14:01.444Z,2.65
2022-08-22T17:16:50.889Z,2.58
2022-08-22T17:19:36.316Z,4.15
2022-08-22T17:22:11.939Z,3.17
2022-08-22T17:24:47.046Z,2.75
2022-08-22T17:27:24.362Z,2.58
2022-08-22T17:30:02.292Z,2.80
2022-08-22T17:32:41.592Z,3.10
2022-08-22T17:35:21.967Z,4.35
2022-08-22T17:38:01.878Z,2.83
2022-08-22T17:40:42.854Z,4.32
2022-08-22T17:43:39.973Z,2.85
2022-08-22T17:46:31.317Z,2.78
2022-08-22T17:49:09.868Z,3.53
2022-08-22T17:51:47.212Z,4.72
2022-08-22T17:54:21.638Z,2.90
2022-08-22T17:57:05.194Z,2.17
2022-08-22T17:59:40.680Z,2.85
2022-08-22T18:02:16.232Z,2.22
2022-08-22T18:04:52.305Z,2.55
2022-08-22T18:07:32.216Z,2.55
2022-08-22T18:10:05.007Z,2.20
2022-08-22T18:12:41.006Z,1.90
2022-08-22T18:15:19.662Z,1.88
2022-08-22T18:17:54.189Z,2.33
2022-08-22T18:20:27.100Z,2.40
2022-08-22T18:23:01.939Z,1.95
2022-08-22T18:25:42.428Z,2.75
2022-08-22T18:28:22.656Z,2.60
2022-08-22T18:30:57.355Z,2.22
2022-08-22T18:33:32.793Z,2.88
2022-08-22T18:36:10.472Z,2.33
2022-08-22T18:38:50.942Z,2.65
2022-08-22T18:41:27.427Z,2.38
2022-08-22T18:43:56.756Z,2.63
2022-08-22T18:46:39.666Z,3.10
2022-08-22T18:49:16.027Z,3.00
2022-08-22T18:51:44.360Z,2.70
2022-08-22T18:54:37.116Z,2.75
2022-08-22T18:57:26.415Z,2.97
2022-08-22T19:00:09.475Z,4.68
2022-08-22T19:03:03.634Z,3.30
2022-08-22T19:05:47.462Z,2.97
2022-08-22T19:08:54.227Z,4.38
2022-08-22T19:11:42.068Z,4.35
2022-08-22T19:14:41.667Z,3.50
2022-08-22T19:17:33.141Z,2.80
2022-08-22T19:20:22.446Z,2.50
2022-08-22T19:22:53.103Z,2.90
2022-08-22T19:25:26.615Z,2.47
2022-08-22T19:28:25.240Z,2.88
2022-08-22T19:31:16.560Z,2.97
2022-08-22T19:33:49.588Z,3.40
2022-08-22T19:36:32.455Z,3.22
2022-08-22T19:39:03.690Z,2.92
2022-08-22T19:41:57.048Z,3.20
2022-08-22T19:44:51.139Z,2.70
2022-08-22T19:47:32.722Z,2.85
2022-08-22T19:50:05.412Z,2.60
2022-08-22T19:52:48.059Z,2.63
2022-08-22T19:55:23.727Z,3.00
2022-08-22T19:58:00.434Z,2.80
2022-08-22T20:00:52.803Z,2.97
2022-08-22T20:03:32.989Z,2.60
2022-08-22T20:06:22.073Z,2.92
2022-08-22T20:09:09.351Z,2.85
2022-08-22T20:11:45.449Z,2.42
2022-08-22T20:14:26.564Z,2.63
2022-08-22T20:17:10.323Z,2.92
2022-08-22T20:20:16.376Z,2.67
2022-08-22T20:22:37.064Z,2.80
2022-08-22T20:25:20.705Z,2.55
2022-08-22T20:28:03.907Z,2.90
2022-08-22T20:30:38.782Z,2.60
2022-08-22T20:33:10.666Z,3.00
2022-08-22T20:35:43.049Z,3.03
2022-08-22T20:38:18.479Z,2.88
2022-08-22T20:41:00.611Z,2.60
2022-08-22T20:43:35.214Z,2.50
2022-08-22T20:46:13.006Z,3.22
2022-08-22T20:48:44.545Z,3.15
2022-08-22T20:51:16.537Z,2.80
2022-08-22T20:53:52.592Z,2.92
2022-08-22T20:56:33.943Z,3.17
2022-08-22T20:59:13.583Z,2.47
2022-08-22T21:01:41.722Z,3.10
2022-08-22T21:04:11.596Z,3.25
2022-08-22T21:06:39.403Z,3.20
2022-08-22T21:09:45.655Z,3.00
2022-08-22T21:12:14.239Z,3.30
2022-08-22T21:14:46.180Z,2.85
2022-08-22T21:17:19.475Z,3.00
2022-08-22T21:19:48.923Z,2.70
2022-08-22T21:22:19.126Z,2.72
2022-08-22T21:24:47.192Z,3.00
2022-08-22T21:27:21.919Z,2.80
2022-08-22T21:29:49.838Z,2.63
2022-08-22T21:32:33.018Z,2.97
2022-08-22T21:35:04.143Z,2.80
2022-08-22T21:37:39.742Z,2.80
2022-08-22T21:40:16.925Z,3.05
2022-08-22T21:42:47.244Z,2.97
2022-08-22T21:45:28.403Z,3.55
2022-08-22T21:47:56.382Z,3.30
2022-08-22T21:50:34.706Z,2.80
2022-08-22T21:53:10.245Z,3.58
2022-08-22T21:55:42.882Z,3.70
2022-08-22T21:58:37.003Z,3.10
2022-08-22T22:01:28.840Z,3.42
2022-08-22T22:03:58.319Z,3.10
2022-08-22T22:06:28.496Z,3.30
2022-08-22T22:08:56.744Z,2.90
2022-08-22T22:11:24.598Z,2.78
2022-08-22T22:13:52.582Z,3.53
2022-08-22T22:16:25.960Z,3.38
2022-08-22T22:18:53.817Z,3.08
2022-08-22T22:21:22.054Z,3.45
2022-08-22T22:23:52.431Z,3.35
2022-08-22T22:26:20.968Z,3.20
2022-08-22T22:28:50.338Z,3.00
2022-08-22T22:31:19.626Z,3.38
2022-08-22T22:33:47.479Z,3.00
2022-08-22T22:36:19.318Z,3.05
2022-08-22T22:38:47.831Z,3.42
2022-08-22T22:41:17.013Z,2.85
2022-08-22T22:43:44.782Z,3.65
2022-08-22T22:46:12.591Z,3.35
2022-08-22T22:48:40.360Z,3.33
2022-08-22T22:51:09.884Z,3.60
2022-08-22T22:53:42.541Z,3.15
2022-08-22T22:56:13.305Z,3.20
2022-08-22T22:58:42.625Z,3.00
2022-08-22T23:01:11.759Z,3.35
2022-08-22T23:03:39.670Z,3.55
2022-08-22T23:06:12.161Z,3.17
2022-08-22T23:08:39.975Z,3.28
2022-08-22T23:11:10.958Z,3.17
2022-08-22T23:13:39.633Z,3.50
2022-08-22T23:16:12.819Z,4.15
2022-08-22T23:18:40.921Z,3.33
2022-08-22T23:21:13.372Z,3.42
2022-08-22T23:23:41.323Z,3.60
2022-08-22T23:26:09.801Z,3.50
2022-08-22T23:28:37.812Z,3.20
2022-08-22T23:31:19.048Z,3.80
2022-08-22T23:33:47.399Z,3.45
2022-08-22T23:36:17.198Z,4.18
2022-08-22T23:38:45.444Z,3.97
2022-08-22T23:41:15.234Z,3.97
2022-08-22T23:43:44.904Z,3.88
2022-08-22T23:46:13.773Z,3.92
2022-08-22T23:48:43.511Z,3.97
2022-08-22T23:51:12.527Z,3.80
2022-08-22T23:53:40.887Z,4.13
2022-08-22T23:56:19.449Z,3.90
2022-08-22T23:58:49.304Z,4.00
